sensor_id;sensor_type;location;lat;lon;timestamp;temperature;humidity
65472;DHT22;52068;50.710;14.492;2023-09-07T00:00:37;23.96;52.47
65472;DHT22;52068;50.710;14.492;2023-09-07T00:03:03;23.95;52.38
65472;DHT22;52068;50.710;14.492;2023-09-07T00:05:29;23.96;52.29
65472;DHT22;52068;50.710;14.492;2023-09-07T00:07:55;23.98;52.47
65472;DHT22;52068;50.710;14.492;2023-09-07T00:10:21;23.93;52.38
65472;DHT22;52068;50.710;14.492;2023-09-07T00:12:46;23.98;52.32
65472;DHT22;52068;50.710;14.492;2023-09-07T00:15:12;23.93;52.32
65472;DHT22;52068;50.710;14.492;2023-09-07T00:17:37;23.95;52.43
65472;DHT22;52068;50.710;14.492;2023-09-07T00:20:03;23.92;52.49
65472;DHT22;52068;50.710;14.492;2023-09-07T00:22:36;23.90;52.34
65472;DHT22;52068;50.710;14.492;2023-09-07T00:25:02;23.89;52.33
65472;DHT22;52068;50.710;14.492;2023-09-07T00:27:29;23.89;52.38
65472;DHT22;52068;50.710;14.492;2023-09-07T00:29:54;23.89;52.39
65472;DHT22;52068;50.710;14.492;2023-09-07T00:32:20;23.90;52.26
65472;DHT22;52068;50.710;14.492;2023-09-07T00:34:45;23.90;52.30
65472;DHT22;52068;50.710;14.492;2023-09-07T00:37:11;23.90;52.41
65472;DHT22;52068;50.710;14.492;2023-09-07T00:39:37;23.89;52.37
65472;DHT22;52068;50.710;14.492;2023-09-07T00:42:03;23.89;52.38
65472;DHT22;52068;50.710;14.492;2023-09-07T00:44:28;23.85;52.41
65472;DHT22;52068;50.710;14.492;2023-09-07T00:46:53;23.89;52.29
65472;DHT22;52068;50.710;14.492;2023-09-07T00:49:19;23.88;52.39
65472;DHT22;52068;50.710;14.492;2023-09-07T00:51:44;23.88;52.32
65472;DHT22;52068;50.710;14.492;2023-09-07T00:54:10;23.86;52.29
65472;DHT22;52068;50.710;14.492;2023-09-07T00:56:36;23.88;52.35
65472;DHT22;52068;50.710;14.492;2023-09-07T00:59:02;23.88;52.33
65472;DHT22;52068;50.710;14.492;2023-09-07T01:01:27;23.85;52.43
65472;DHT22;52068;50.710;14.492;2023-09-07T01:03:54;23.84;52.32
65472;DHT22;52068;50.710;14.492;2023-09-07T01:07:00;23.84;52.51
65472;DHT22;52068;50.710;14.492;2023-09-07T01:09:30;23.82;52.52
65472;DHT22;52068;50.710;14.492;2023-09-07T01:11:57;23.82;52.51
65472;DHT22;52068;50.710;14.492;2023-09-07T01:14:22;23.82;52.37
65472;DHT22;52068;50.710;14.492;2023-09-07T01:16:48;23.82;52.45
65472;DHT22;52068;50.710;14.492;2023-09-07T01:19:14;23.82;52.47
65472;DHT22;52068;50.710;14.492;2023-09-07T01:21:40;23.81;52.36
65472;DHT22;52068;50.710;14.492;2023-09-07T01:24:10;23.79;52.42
65472;DHT22;52068;50.710;14.492;2023-09-07T01:26:37;23.79;52.40
65472;DHT22;52068;50.710;14.492;2023-09-07T01:29:08;23.81;52.47
65472;DHT22;52068;50.710;14.492;2023-09-07T01:31:36;23.78;52.52
65472;DHT22;52068;50.710;14.492;2023-09-07T01:34:03;23.78;52.47
65472;DHT22;52068;50.710;14.492;2023-09-07T01:36:29;23.76;52.51
65472;DHT22;52068;50.710;14.492;2023-09-07T01:38:55;23.78;52.46
65472;DHT22;52068;50.710;14.492;2023-09-07T01:41:20;23.75;52.68
65472;DHT22;52068;50.710;14.492;2023-09-07T01:43:45;23.74;52.54
65472;DHT22;52068;50.710;14.492;2023-09-07T01:46:11;23.72;52.58
65472;DHT22;52068;50.710;14.492;2023-09-07T01:48:36;23.74;52.56
65472;DHT22;52068;50.710;14.492;2023-09-07T01:51:02;23.72;52.57
65472;DHT22;52068;50.710;14.492;2023-09-07T01:53:27;23.72;52.60
65472;DHT22;52068;50.710;14.492;2023-09-07T01:55:56;23.71;52.51
65472;DHT22;52068;50.710;14.492;2023-09-07T01:58:22;23.71;52.65
65472;DHT22;52068;50.710;14.492;2023-09-07T02:00:49;23.74;52.61
65472;DHT22;52068;50.710;14.492;2023-09-07T02:03:14;23.72;52.49
65472;DHT22;52068;50.710;14.492;2023-09-07T02:05:40;23.72;52.67
65472;DHT22;52068;50.710;14.492;2023-09-07T02:08:05;23.68;52.71
65472;DHT22;52068;50.710;14.492;2023-09-07T02:10:31;23.66;52.65
65472;DHT22;52068;50.710;14.492;2023-09-07T02:12:56;23.66;52.81
65472;DHT22;52068;50.710;14.492;2023-09-07T02:15:23;23.66;52.72
65472;DHT22;52068;50.710;14.492;2023-09-07T02:17:48;23.66;52.61
65472;DHT22;52068;50.710;14.492;2023-09-07T02:20:14;23.65;52.53
65472;DHT22;52068;50.710;14.492;2023-09-07T02:22:39;23.66;52.68
65472;DHT22;52068;50.710;14.492;2023-09-07T02:25:05;23.65;52.67
65472;DHT22;52068;50.710;14.492;2023-09-07T02:27:32;23.66;52.73
65472;DHT22;52068;50.710;14.492;2023-09-07T02:29:57;23.66;52.65
65472;DHT22;52068;50.710;14.492;2023-09-07T02:32:22;23.66;52.56
65472;DHT22;52068;50.710;14.492;2023-09-07T02:34:48;23.64;52.56
65472;DHT22;52068;50.710;14.492;2023-09-07T02:37:13;23.65;52.65
65472;DHT22;52068;50.710;14.492;2023-09-07T02:39:41;23.66;52.77
65472;DHT22;52068;50.710;14.492;2023-09-07T02:42:06;23.64;52.58
65472;DHT22;52068;50.710;14.492;2023-09-07T02:44:32;23.62;52.65
65472;DHT22;52068;50.710;14.492;2023-09-07T02:46:57;23.61;52.71
65472;DHT22;52068;50.710;14.492;2023-09-07T02:49:22;23.59;52.74
65472;DHT22;52068;50.710;14.492;2023-09-07T02:51:48;23.62;52.63
65472;DHT22;52068;50.710;14.492;2023-09-07T02:54:13;23.61;52.68
65472;DHT22;52068;50.710;14.492;2023-09-07T02:56:38;23.59;52.54
65472;DHT22;52068;50.710;14.492;2023-09-07T02:59:04;23.62;52.69
65472;DHT22;52068;50.710;14.492;2023-09-07T03:01:30;23.59;52.71
65472;DHT22;52068;50.710;14.492;2023-09-07T03:03:56;23.58;52.59
65472;DHT22;52068;50.710;14.492;2023-09-07T03:06:21;23.59;52.67
65472;DHT22;52068;50.710;14.492;2023-09-07T03:08:46;23.57;52.63
65472;DHT22;52068;50.710;14.492;2023-09-07T03:11:12;23.57;52.72
65472;DHT22;52068;50.710;14.492;2023-09-07T03:13:38;23.58;52.70
65472;DHT22;52068;50.710;14.492;2023-09-07T03:16:04;23.57;52.70
65472;DHT22;52068;50.710;14.492;2023-09-07T03:18:30;23.55;52.72
65472;DHT22;52068;50.710;14.492;2023-09-07T03:20:56;23.57;52.67
65472;DHT22;52068;50.710;14.492;2023-09-07T03:23:23;23.55;52.61
65472;DHT22;52068;50.710;14.492;2023-09-07T03:25:48;23.54;52.77
65472;DHT22;52068;50.710;14.492;2023-09-07T03:28:14;23.54;52.94
65472;DHT22;52068;50.710;14.492;2023-09-07T03:30:39;23.51;52.64
65472;DHT22;52068;50.710;14.492;2023-09-07T03:33:05;23.54;52.67
65472;DHT22;52068;50.710;14.492;2023-09-07T03:35:31;23.52;52.70
65472;DHT22;52068;50.710;14.492;2023-09-07T03:37:56;23.52;52.67
65472;DHT22;52068;50.710;14.492;2023-09-07T03:40:22;23.51;52.79
65472;DHT22;52068;50.710;14.492;2023-09-07T03:42:47;23.52;52.77
65472;DHT22;52068;50.710;14.492;2023-09-07T03:45:12;23.52;52.70
65472;DHT22;52068;50.710;14.492;2023-09-07T03:47:38;23.50;52.80
65472;DHT22;52068;50.710;14.492;2023-09-07T03:50:03;23.51;52.76
65472;DHT22;52068;50.710;14.492;2023-09-07T03:52:29;23.48;52.90
65472;DHT22;52068;50.710;14.492;2023-09-07T03:54:55;23.48;52.79
65472;DHT22;52068;50.710;14.492;2023-09-07T03:57:21;23.44;52.79
65472;DHT22;52068;50.710;14.492;2023-09-07T03:59:47;23.45;52.97
65472;DHT22;52068;50.710;14.492;2023-09-07T04:02:12;23.45;52.85
65472;DHT22;52068;50.710;14.492;2023-09-07T04:04:38;23.45;52.82
65472;DHT22;52068;50.710;14.492;2023-09-07T04:07:03;23.44;52.82
65472;DHT22;52068;50.710;14.492;2023-09-07T04:09:29;23.48;52.92
65472;DHT22;52068;50.710;14.492;2023-09-07T04:11:54;23.45;52.76
65472;DHT22;52068;50.710;14.492;2023-09-07T04:14:20;23.45;52.82
65472;DHT22;52068;50.710;14.492;2023-09-07T04:16:45;23.44;52.78
65472;DHT22;52068;50.710;14.492;2023-09-07T04:19:10;23.44;52.86
65472;DHT22;52068;50.710;14.492;2023-09-07T04:21:36;23.44;52.79
65472;DHT22;52068;50.710;14.492;2023-09-07T04:24:02;23.47;52.78
65472;DHT22;52068;50.710;14.492;2023-09-07T04:26:27;23.47;52.75
65472;DHT22;52068;50.710;14.492;2023-09-07T04:28:52;23.41;52.91
65472;DHT22;52068;50.710;14.492;2023-09-07T04:31:18;23.41;52.84
65472;DHT22;52068;50.710;14.492;2023-09-07T04:33:43;23.41;52.81
65472;DHT22;52068;50.710;14.492;2023-09-07T04:36:14;23.43;52.89
65472;DHT22;52068;50.710;14.492;2023-09-07T04:38:40;23.43;52.79
65472;DHT22;52068;50.710;14.492;2023-09-07T04:41:10;23.43;52.86
65472;DHT22;52068;50.710;14.492;2023-09-07T04:43:37;23.44;52.74
65472;DHT22;52068;50.710;14.492;2023-09-07T04:46:02;23.41;52.81
65472;DHT22;52068;50.710;14.492;2023-09-07T04:48:28;23.43;52.96
65472;DHT22;52068;50.710;14.492;2023-09-07T04:51:00;23.44;52.98
65472;DHT22;52068;50.710;14.492;2023-09-07T04:53:28;23.40;52.70
65472;DHT22;52068;50.710;14.492;2023-09-07T04:55:53;23.45;52.94
65472;DHT22;52068;50.710;14.492;2023-09-07T04:58:19;23.44;52.87
65472;DHT22;52068;50.710;14.492;2023-09-07T05:00:44;23.43;53.03
65472;DHT22;52068;50.710;14.492;2023-09-07T05:03:09;23.44;52.87
65472;DHT22;52068;50.710;14.492;2023-09-07T05:05:35;23.44;52.86
65472;DHT22;52068;50.710;14.492;2023-09-07T05:08:00;23.44;52.77
65472;DHT22;52068;50.710;14.492;2023-09-07T05:10:27;23.44;52.99
65472;DHT22;52068;50.710;14.492;2023-09-07T05:12:52;23.45;52.83
65472;DHT22;52068;50.710;14.492;2023-09-07T05:15:17;23.45;52.88
65472;DHT22;52068;50.710;14.492;2023-09-07T05:17:43;23.44;52.84
65472;DHT22;52068;50.710;14.492;2023-09-07T05:20:08;23.45;53.08
65472;DHT22;52068;50.710;14.492;2023-09-07T05:22:34;23.47;53.25
65472;DHT22;52068;50.710;14.492;2023-09-07T05:25:02;23.45;52.99
65472;DHT22;52068;50.710;14.492;2023-09-07T05:27:28;23.44;53.10
65472;DHT22;52068;50.710;14.492;2023-09-07T05:29:53;23.45;53.15
65472;DHT22;52068;50.710;14.492;2023-09-07T05:32:20;23.47;53.15
65472;DHT22;52068;50.710;14.492;2023-09-07T05:34:46;23.45;53.23
65472;DHT22;52068;50.710;14.492;2023-09-07T05:37:11;23.50;53.24
65472;DHT22;52068;50.710;14.492;2023-09-07T05:39:36;23.50;53.17
65472;DHT22;52068;50.710;14.492;2023-09-07T05:42:02;23.50;53.23
65472;DHT22;52068;50.710;14.492;2023-09-07T05:44:27;23.50;53.40
65472;DHT22;52068;50.710;14.492;2023-09-07T05:46:53;23.50;53.46
65472;DHT22;52068;50.710;14.492;2023-09-07T05:49:19;23.50;53.44
65472;DHT22;52068;50.710;14.492;2023-09-07T05:51:44;23.54;53.47
65472;DHT22;52068;50.710;14.492;2023-09-07T05:54:10;23.52;53.39
65472;DHT22;52068;50.710;14.492;2023-09-07T05:56:35;23.54;53.42
65472;DHT22;52068;50.710;14.492;2023-09-07T05:59:00;23.52;53.49
65472;DHT22;52068;50.710;14.492;2023-09-07T06:01:26;23.52;53.62
65472;DHT22;52068;50.710;14.492;2023-09-07T06:03:51;23.54;53.71
65472;DHT22;52068;50.710;14.492;2023-09-07T06:06:16;23.52;53.81
65472;DHT22;52068;50.710;14.492;2023-09-07T06:08:42;23.54;53.83
65472;DHT22;52068;50.710;14.492;2023-09-07T06:11:07;23.54;53.90
65472;DHT22;52068;50.710;14.492;2023-09-07T06:13:32;23.58;53.90
65472;DHT22;52068;50.710;14.492;2023-09-07T06:15:58;23.62;53.87
65472;DHT22;52068;50.710;14.492;2023-09-07T06:18:25;23.64;53.79
65472;DHT22;52068;50.710;14.492;2023-09-07T06:20:51;23.64;53.68
65472;DHT22;52068;50.710;14.492;2023-09-07T06:23:16;23.66;53.51
65472;DHT22;52068;50.710;14.492;2023-09-07T06:25:42;23.68;53.40
65472;DHT22;52068;50.710;14.492;2023-09-07T06:28:07;23.66;53.18
65472;DHT22;52068;50.710;14.492;2023-09-07T06:30:32;23.69;53.12
65472;DHT22;52068;50.710;14.492;2023-09-07T06:32:58;23.68;52.99
65472;DHT22;52068;50.710;14.492;2023-09-07T06:35:23;23.71;52.87
65472;DHT22;52068;50.710;14.492;2023-09-07T06:37:48;23.72;52.76
65472;DHT22;52068;50.710;14.492;2023-09-07T06:40:14;23.75;52.70
65472;DHT22;52068;50.710;14.492;2023-09-07T06:42:40;23.74;52.76
65472;DHT22;52068;50.710;14.492;2023-09-07T06:45:06;23.74;52.72
65472;DHT22;52068;50.710;14.492;2023-09-07T06:47:32;23.74;52.76
65472;DHT22;52068;50.710;14.492;2023-09-07T06:49:58;23.72;52.77
65472;DHT22;52068;50.710;14.492;2023-09-07T06:52:23;23.75;52.74
65472;DHT22;52068;50.710;14.492;2023-09-07T06:54:52;23.78;52.69
65472;DHT22;52068;50.710;14.492;2023-09-07T06:57:18;23.76;52.68
65472;DHT22;52068;50.710;14.492;2023-09-07T06:59:44;23.81;52.72
65472;DHT22;52068;50.710;14.492;2023-09-07T07:02:09;23.79;52.74
65472;DHT22;52068;50.710;14.492;2023-09-07T07:04:35;23.79;52.79
65472;DHT22;52068;50.710;14.492;2023-09-07T07:07:00;23.81;52.74
65472;DHT22;52068;50.710;14.492;2023-09-07T07:09:32;23.82;52.76
65472;DHT22;52068;50.710;14.492;2023-09-07T07:12:02;23.82;52.77
65472;DHT22;52068;50.710;14.492;2023-09-07T07:14:28;23.85;52.77
65472;DHT22;52068;50.710;14.492;2023-09-07T07:16:53;23.85;52.75
65472;DHT22;52068;50.710;14.492;2023-09-07T07:19:19;23.89;52.75
65472;DHT22;52068;50.710;14.492;2023-09-07T07:21:44;23.88;52.78
65472;DHT22;52068;50.710;14.492;2023-09-07T07:24:10;23.89;52.71
65472;DHT22;52068;50.710;14.492;2023-09-07T07:26:35;23.90;52.68
65472;DHT22;52068;50.710;14.492;2023-09-07T07:29:02;23.92;52.77
65472;DHT22;52068;50.710;14.492;2023-09-07T07:31:28;23.93;52.76
65472;DHT22;52068;50.710;14.492;2023-09-07T07:33:54;23.93;52.76
65472;DHT22;52068;50.710;14.492;2023-09-07T07:36:20;23.95;52.72
65472;DHT22;52068;50.710;14.492;2023-09-07T07:38:46;23.96;52.76
65472;DHT22;52068;50.710;14.492;2023-09-07T07:41:11;23.95;52.72
65472;DHT22;52068;50.710;14.492;2023-09-07T07:43:36;23.99;52.67
65472;DHT22;52068;50.710;14.492;2023-09-07T07:46:02;23.99;52.71
65472;DHT22;52068;50.710;14.492;2023-09-07T07:48:27;23.96;52.67
65472;DHT22;52068;50.710;14.492;2023-09-07T07:50:54;24.01;52.66
65472;DHT22;52068;50.710;14.492;2023-09-07T07:53:20;24.03;52.63
65472;DHT22;52068;50.710;14.492;2023-09-07T07:55:45;24.06;52.61
65472;DHT22;52068;50.710;14.492;2023-09-07T07:58:11;24.05;52.60
65472;DHT22;52068;50.710;14.492;2023-09-07T08:00:37;24.08;52.58
65472;DHT22;52068;50.710;14.492;2023-09-07T08:03:03;24.08;52.55
65472;DHT22;52068;50.710;14.492;2023-09-07T08:05:31;24.09;52.47
65472;DHT22;52068;50.710;14.492;2023-09-07T08:07:57;24.09;52.52
65472;DHT22;52068;50.710;14.492;2023-09-07T08:10:22;24.12;52.48
65472;DHT22;52068;50.710;14.492;2023-09-07T08:12:48;24.12;52.48
65472;DHT22;52068;50.710;14.492;2023-09-07T08:15:13;24.12;52.43
65472;DHT22;52068;50.710;14.492;2023-09-07T08:17:40;24.12;52.47
65472;DHT22;52068;50.710;14.492;2023-09-07T08:20:05;24.15;52.48
65472;DHT22;52068;50.710;14.492;2023-09-07T08:22:33;24.15;52.47
65472;DHT22;52068;50.710;14.492;2023-09-07T08:25:01;24.16;52.47
65472;DHT22;52068;50.710;14.492;2023-09-07T08:27:26;24.16;52.49
65472;DHT22;52068;50.710;14.492;2023-09-07T08:29:52;24.19;52.44
65472;DHT22;52068;50.710;14.492;2023-09-07T08:32:18;24.20;52.43
65472;DHT22;52068;50.710;14.492;2023-09-07T08:34:44;24.19;52.41
65472;DHT22;52068;50.710;14.492;2023-09-07T08:37:09;24.19;52.40
65472;DHT22;52068;50.710;14.492;2023-09-07T08:39:35;24.20;52.44
65472;DHT22;52068;50.710;14.492;2023-09-07T08:42:02;24.20;52.40
65472;DHT22;52068;50.710;14.492;2023-09-07T08:44:28;24.20;52.40
65472;DHT22;52068;50.710;14.492;2023-09-07T08:46:55;24.24;52.33
65472;DHT22;52068;50.710;14.492;2023-09-07T08:49:20;24.26;52.27
65472;DHT22;52068;50.710;14.492;2023-09-07T08:51:47;24.24;52.25
65472;DHT22;52068;50.710;14.492;2023-09-07T08:54:12;24.24;52.21
65472;DHT22;52068;50.710;14.492;2023-09-07T08:56:38;24.26;52.19
65472;DHT22;52068;50.710;14.492;2023-09-07T08:59:03;24.26;52.03
65472;DHT22;52068;50.710;14.492;2023-09-07T09:01:30;24.29;52.08
65472;DHT22;52068;50.710;14.492;2023-09-07T09:03:57;24.26;52.19
65472;DHT22;52068;50.710;14.492;2023-09-07T09:06:22;24.29;52.16
65472;DHT22;52068;50.710;14.492;2023-09-07T09:08:50;24.27;52.17
65472;DHT22;52068;50.710;14.492;2023-09-07T09:11:16;24.29;52.15
65472;DHT22;52068;50.710;14.492;2023-09-07T09:13:42;24.30;52.12
65472;DHT22;52068;50.710;14.492;2023-09-07T09:16:08;24.29;52.11
65472;DHT22;52068;50.710;14.492;2023-09-07T09:18:34;24.32;52.07
65472;DHT22;52068;50.710;14.492;2023-09-07T09:21:00;24.30;52.02
65472;DHT22;52068;50.710;14.492;2023-09-07T09:23:35;24.33;52.05
65472;DHT22;52068;50.710;14.492;2023-09-07T09:26:02;24.32;52.02
65472;DHT22;52068;50.710;14.492;2023-09-07T09:28:33;24.33;52.01
65472;DHT22;52068;50.710;14.492;2023-09-07T09:31:00;24.34;52.02
65472;DHT22;52068;50.710;14.492;2023-09-07T09:33:26;24.33;51.99
65472;DHT22;52068;50.710;14.492;2023-09-07T09:35:53;24.33;52.02
65472;DHT22;52068;50.710;14.492;2023-09-07T09:38:19;24.34;51.99
65472;DHT22;52068;50.710;14.492;2023-09-07T09:40:45;24.33;52.00
65472;DHT22;52068;50.710;14.492;2023-09-07T09:43:11;24.33;51.99
65472;DHT22;52068;50.710;14.492;2023-09-07T09:45:37;24.33;51.98
65472;DHT22;52068;50.710;14.492;2023-09-07T09:48:04;24.34;51.97
65472;DHT22;52068;50.710;14.492;2023-09-07T09:50:30;24.37;51.92
65472;DHT22;52068;50.710;14.492;2023-09-07T09:52:57;24.37;51.95
65472;DHT22;52068;50.710;14.492;2023-09-07T09:55:23;24.36;51.93
65472;DHT22;52068;50.710;14.492;2023-09-07T09:57:49;24.36;51.93
65472;DHT22;52068;50.710;14.492;2023-09-07T10:00:15;24.39;51.90
65472;DHT22;52068;50.710;14.492;2023-09-07T10:02:51;24.39;51.87
65472;DHT22;52068;50.710;14.492;2023-09-07T10:05:18;24.37;51.84
65472;DHT22;52068;50.710;14.492;2023-09-07T10:07:45;24.39;51.78
65472;DHT22;52068;50.710;14.492;2023-09-07T10:10:13;24.40;51.78
65472;DHT22;52068;50.710;14.492;2023-09-07T10:13:00;24.39;51.78
65472;DHT22;52068;50.710;14.492;2023-09-07T10:15:26;24.43;51.72
65472;DHT22;52068;50.710;14.492;2023-09-07T10:18:12;24.39;51.75
65472;DHT22;52068;50.710;14.492;2023-09-07T10:20:55;24.39;51.72
65472;DHT22;52068;50.710;14.492;2023-09-07T10:23:42;24.44;51.71
65472;DHT22;52068;50.710;14.492;2023-09-07T10:26:18;24.43;51.54
65472;DHT22;52068;50.710;14.492;2023-09-07T10:28:46;24.43;51.55
65472;DHT22;52068;50.710;14.492;2023-09-07T10:31:19;24.44;51.52
65472;DHT22;52068;50.710;14.492;2023-09-07T10:33:46;24.41;51.62
65472;DHT22;52068;50.710;14.492;2023-09-07T10:38:46;24.43;51.62
65472;DHT22;52068;50.710;14.492;2023-09-07T10:41:11;24.41;51.68
65472;DHT22;52068;50.710;14.492;2023-09-07T10:43:50;24.43;51.64
65472;DHT22;52068;50.710;14.492;2023-09-07T10:46:19;24.43;51.55
65472;DHT22;52068;50.710;14.492;2023-09-07T10:48:45;24.43;51.57
65472;DHT22;52068;50.710;14.492;2023-09-07T10:51:10;24.44;51.49
65472;DHT22;52068;50.710;14.492;2023-09-07T10:53:36;24.46;51.45
65472;DHT22;52068;50.710;14.492;2023-09-07T10:56:05;24.44;51.30
65472;DHT22;52068;50.710;14.492;2023-09-07T10:58:35;24.49;51.34
65472;DHT22;52068;50.710;14.492;2023-09-07T11:01:04;24.47;51.37
65472;DHT22;52068;50.710;14.492;2023-09-07T11:03:30;24.47;51.34
65472;DHT22;52068;50.710;14.492;2023-09-07T11:05:59;24.49;51.35
65472;DHT22;52068;50.710;14.492;2023-09-07T11:08:25;24.50;51.27
65472;DHT22;52068;50.710;14.492;2023-09-07T11:10:52;24.50;51.25
65472;DHT22;52068;50.710;14.492;2023-09-07T11:13:17;24.50;51.20
65472;DHT22;52068;50.710;14.492;2023-09-07T11:15:43;24.49;51.30
65472;DHT22;52068;50.710;14.492;2023-09-07T11:18:08;24.49;51.29
65472;DHT22;52068;50.710;14.492;2023-09-07T11:20:35;24.50;51.26
65472;DHT22;52068;50.710;14.492;2023-09-07T11:23:02;24.52;51.16
65472;DHT22;52068;50.710;14.492;2023-09-07T11:25:37;24.52;51.06
65472;DHT22;52068;50.710;14.492;2023-09-07T11:28:06;24.56;50.88
65472;DHT22;52068;50.710;14.492;2023-09-07T11:30:33;24.57;50.78
65472;DHT22;52068;50.710;14.492;2023-09-07T11:33:05;24.56;50.69
65472;DHT22;52068;50.710;14.492;2023-09-07T11:35:31;24.57;50.55
65472;DHT22;52068;50.710;14.492;2023-09-07T11:37:59;24.57;50.52
65472;DHT22;52068;50.710;14.492;2023-09-07T11:40:25;24.60;50.45
65472;DHT22;52068;50.710;14.492;2023-09-07T11:42:50;24.61;50.43
65472;DHT22;52068;50.710;14.492;2023-09-07T11:45:15;24.60;50.43
65472;DHT22;52068;50.710;14.492;2023-09-07T11:47:43;24.63;50.40
65472;DHT22;52068;50.710;14.492;2023-09-07T11:50:08;24.64;50.36
65472;DHT22;52068;50.710;14.492;2023-09-07T11:52:34;24.67;50.28
65472;DHT22;52068;50.710;14.492;2023-09-07T11:54:59;24.64;50.16
65472;DHT22;52068;50.710;14.492;2023-09-07T11:57:25;24.70;49.97
65472;DHT22;52068;50.710;14.492;2023-09-07T11:59:50;24.70;49.73
65472;DHT22;52068;50.710;14.492;2023-09-07T12:02:15;24.68;49.70
65472;DHT22;52068;50.710;14.492;2023-09-07T12:04:43;24.68;49.58
65472;DHT22;52068;50.710;14.492;2023-09-07T12:07:09;24.73;49.51
65472;DHT22;52068;50.710;14.492;2023-09-07T12:09:35;24.73;49.46
65472;DHT22;52068;50.710;14.492;2023-09-07T12:12:00;24.71;49.46
65472;DHT22;52068;50.710;14.492;2023-09-07T12:14:25;24.74;49.63
65472;DHT22;52068;50.710;14.492;2023-09-07T12:16:51;24.75;49.55
65472;DHT22;52068;50.710;14.492;2023-09-07T12:19:16;24.75;49.61
65472;DHT22;52068;50.710;14.492;2023-09-07T12:21:42;24.77;49.67
65472;DHT22;52068;50.710;14.492;2023-09-07T12:24:08;24.78;49.60
65472;DHT22;52068;50.710;14.492;2023-09-07T12:26:33;24.77;49.54
65472;DHT22;52068;50.710;14.492;2023-09-07T12:28:58;24.78;49.51
65472;DHT22;52068;50.710;14.492;2023-09-07T12:31:25;24.83;49.45
65472;DHT22;52068;50.710;14.492;2023-09-07T12:33:50;24.83;49.49
65472;DHT22;52068;50.710;14.492;2023-09-07T12:36:17;24.85;49.45
65472;DHT22;52068;50.710;14.492;2023-09-07T12:38:42;24.85;49.24
65472;DHT22;52068;50.710;14.492;2023-09-07T12:41:07;24.87;49.17
65472;DHT22;52068;50.710;14.492;2023-09-07T12:43:33;24.88;49.21
65472;DHT22;52068;50.710;14.492;2023-09-07T12:45:58;24.90;49.25
65472;DHT22;52068;50.710;14.492;2023-09-07T12:48:24;24.90;49.25
65472;DHT22;52068;50.710;14.492;2023-09-07T12:50:49;24.92;49.20
65472;DHT22;52068;50.710;14.492;2023-09-07T12:53:15;24.92;49.01
65472;DHT22;52068;50.710;14.492;2023-09-07T12:55:41;24.95;48.86
65472;DHT22;52068;50.710;14.492;2023-09-07T12:58:06;24.98;48.59
65472;DHT22;52068;50.710;14.492;2023-09-07T13:00:31;24.99;48.50
65472;DHT22;52068;50.710;14.492;2023-09-07T13:02:57;24.99;48.36
65472;DHT22;52068;50.710;14.492;2023-09-07T13:05:23;25.01;48.32
65472;DHT22;52068;50.710;14.492;2023-09-07T13:07:48;25.04;48.15
65472;DHT22;52068;50.710;14.492;2023-09-07T13:10:14;25.03;48.09
65472;DHT22;52068;50.710;14.492;2023-09-07T13:12:40;25.04;48.21
65472;DHT22;52068;50.710;14.492;2023-09-07T13:15:06;25.07;48.30
65472;DHT22;52068;50.710;14.492;2023-09-07T13:17:31;25.08;48.41
65472;DHT22;52068;50.710;14.492;2023-09-07T13:19:57;25.10;48.39
65472;DHT22;52068;50.710;14.492;2023-09-07T13:22:22;25.12;48.24
65472;DHT22;52068;50.710;14.492;2023-09-07T13:24:48;25.14;48.24
65472;DHT22;52068;50.710;14.492;2023-09-07T13:27:15;25.15;48.25
65472;DHT22;52068;50.710;14.492;2023-09-07T13:29:40;25.14;48.20
65472;DHT22;52068;50.710;14.492;2023-09-07T13:32:06;25.16;48.08
65472;DHT22;52068;50.710;14.492;2023-09-07T13:34:31;25.16;48.18
65472;DHT22;52068;50.710;14.492;2023-09-07T13:36:56;25.21;48.15
65472;DHT22;52068;50.710;14.492;2023-09-07T13:39:22;25.21;48.08
65472;DHT22;52068;50.710;14.492;2023-09-07T13:41:48;25.21;47.98
65472;DHT22;52068;50.710;14.492;2023-09-07T13:44:14;25.22;48.07
65472;DHT22;52068;50.710;14.492;2023-09-07T13:46:39;25.24;48.10
65472;DHT22;52068;50.710;14.492;2023-09-07T13:49:05;25.28;47.91
65472;DHT22;52068;50.710;14.492;2023-09-07T13:51:30;25.26;47.54
65472;DHT22;52068;50.710;14.492;2023-09-07T13:54:06;25.29;47.49
65472;DHT22;52068;50.710;14.492;2023-09-07T13:56:32;25.28;47.54
65472;DHT22;52068;50.710;14.492;2023-09-07T13:58:58;25.28;47.66
65472;DHT22;52068;50.710;14.492;2023-09-07T14:01:24;25.29;47.64
65472;DHT22;52068;50.710;14.492;2023-09-07T14:03:50;25.32;47.73
65472;DHT22;52068;50.710;14.492;2023-09-07T14:06:15;25.35;47.68
65472;DHT22;52068;50.710;14.492;2023-09-07T14:08:43;25.36;47.70
65472;DHT22;52068;50.710;14.492;2023-09-07T14:11:09;25.36;47.72
65472;DHT22;52068;50.710;14.492;2023-09-07T14:13:34;25.38;47.62
65472;DHT22;52068;50.710;14.492;2023-09-07T14:16:00;25.39;47.47
65472;DHT22;52068;50.710;14.492;2023-09-07T14:18:26;25.46;47.21
65472;DHT22;52068;50.710;14.492;2023-09-07T14:20:51;25.43;46.94
65472;DHT22;52068;50.710;14.492;2023-09-07T14:23:17;25.43;46.67
65472;DHT22;52068;50.710;14.492;2023-09-07T14:25:46;25.46;46.76
65472;DHT22;52068;50.710;14.492;2023-09-07T14:28:12;25.43;46.95
65472;DHT22;52068;50.710;14.492;2023-09-07T14:30:38;25.49;46.95
65472;DHT22;52068;50.710;14.492;2023-09-07T14:33:03;25.47;47.04
65472;DHT22;52068;50.710;14.492;2023-09-07T14:35:30;25.49;47.03
65472;DHT22;52068;50.710;14.492;2023-09-07T14:37:55;25.49;47.03
65472;DHT22;52068;50.710;14.492;2023-09-07T14:40:20;25.53;47.08
65472;DHT22;52068;50.710;14.492;2023-09-07T14:42:49;25.52;47.06
65472;DHT22;52068;50.710;14.492;2023-09-07T14:45:15;25.56;47.10
65472;DHT22;52068;50.710;14.492;2023-09-07T14:47:41;25.58;47.10
65472;DHT22;52068;50.710;14.492;2023-09-07T14:50:07;25.58;47.08
65472;DHT22;52068;50.710;14.492;2023-09-07T14:52:32;25.62;46.98
65472;DHT22;52068;50.710;14.492;2023-09-07T14:55:02;25.62;46.95
65472;DHT22;52068;50.710;14.492;2023-09-07T14:57:28;25.62;46.78
65472;DHT22;52068;50.710;14.492;2023-09-07T14:59:53;25.65;46.85
65472;DHT22;52068;50.710;14.492;2023-09-07T15:02:18;25.66;46.83
65472;DHT22;52068;50.710;14.492;2023-09-07T15:04:44;25.65;46.83
65472;DHT22;52068;50.710;14.492;2023-09-07T15:07:10;25.69;46.80
65472;DHT22;52068;50.710;14.492;2023-09-07T15:09:35;25.67;46.60
65472;DHT22;52068;50.710;14.492;2023-09-07T15:12:01;25.69;46.48